Latest Weather Observations for Rhyll

IDV60901

Issued at 10:51 pm EST Friday 22 May 2015 (issued every 10 minutes, with the page automatically refreshed every 10 minutes)

About weather observations | Map of Melbourne area stations | Latest observations for Melbourne area | Other Formats
Station Details ID: 086373 Name: RHYLL Lat: -38.46 Lon: 145.31 Height: 13.4 m
Data from the previous 72 hours. | See also: Recent months at Rhyll
Date/Time
EST
Tmp

°C
App
Tmp
°C
Dew
Point
°C
Rel
Hum
%
Delta-T

°C
Wind Press
QNH
hPa
Press
MSL
hPa
Rain
since
9 am
mm
Dir
 
Spd
km/h
Gust
km/h
Spd
kts
Gust
kts
22/10:30pm 11.8 8.9 6.7 71 2.4 S 11 20 6 11 1031.9 1031.9 0.0
22/10:00pm 11.9 9.2 7.4 74 2.2 SSW 11 17 6 9 1031.9 1031.9 0.0
22/09:30pm 11.9 8.4 7.4 74 2.2 SSW 15 24 8 13 1031.7 1031.7 0.0
22/09:00pm 11.8 9.4 7.1 73 2.2 SSW 9 15 5 8 1031.9 1031.9 0.0
22/08:30pm 11.8 8.2 6.7 71 2.4 S 15 24 8 13 1031.8 1031.8 0.0
22/08:00pm 11.8 9.7 6.7 71 2.4 SW 7 13 4 7 1031.6 1031.6 0.0
22/07:30pm 11.6 9.1 6.5 71 2.4 SSW 9 17 5 9 1031.4 1031.4 0.0
22/07:00pm 11.6 8.4 6.9 73 2.2 S 13 24 7 13 1031.1 1031.1 0.0
22/06:30pm 11.7 9.3 7.0 73 2.2 S 9 20 5 11 1030.8 1030.8 0.0
22/06:00pm 11.6 9.0 6.3 70 2.5 SSW 9 19 5 10 1030.9 1030.9 0.0
22/05:30pm 11.4 8.0 5.9 69 2.6 SSW 13 24 7 13 1030.8 1030.8 0.0
22/05:00pm 11.8 8.2 6.7 71 2.4 SSW 15 28 8 15 1030.6 1030.6 0.0
22/04:30pm 11.9 8.6 6.4 69 2.6 SSW 13 26 7 14 1030.4 1030.4 0.0
22/04:00pm 11.9 8.2 6.4 69 2.6 SSW 15 24 8 13 1030.4 1030.4 0.0
22/03:30pm 12.2 9.0 6.9 70 2.5 SSW 13 24 7 13 1030.3 1030.3 0.0
22/03:00pm 12.3 9.2 7.2 71 2.4 SSW 13 20 7 11 1030.0 1030.0 0.0
22/02:30pm 12.5 9.4 7.4 71 2.5 SSW 13 20 7 11 1029.8 1029.8 0.0
22/02:00pm 12.6 9.6 7.7 72 2.4 S 13 22 7 12 1029.6 1029.6 0.0
22/01:30pm 13.2 9.7 7.4 68 2.8 SSW 15 24 8 13 1029.6 1029.6 0.0
22/01:00pm 13.2 9.9 8.1 71 2.5 SSW 15 24 8 13 1029.6 1029.6 0.0
22/12:30pm 13.6 11.2 8.7 72 2.5 S 11 20 6 11 1029.5 1029.5 0.0
22/12:00pm 13.5 10.8 9.0 74 2.3 S 13 24 7 13 1029.8 1029.8 0.0
22/11:30am 12.5 9.3 8.4 76 2.0 S 15 24 8 13 1030.0 1030.0 0.0
22/11:00am 12.3 9.7 9.3 82 1.5 S 13 24 7 13 1030.2 1030.2 0.0
22/10:30am 11.9 9.4 9.8 87 1.1 S 13 22 7 12 1030.2 1030.2 0.0
22/10:00am 11.6 11.3 10.0 90 0.8 W 2 9 1 5 1030.2 1030.2 0.0
22/09:30am 11.3 11.5 10.4 94 0.5 CALM 0 0 0 0 1030.1 1030.1 0.0
22/09:00am 10.9 10.1 9.8 93 0.6 SSW 4 9 2 5 1030.1 1030.1 1.4
22/08:30am 11.4 9.8 8.8 84 1.3 SW 7 9 4 5 1029.8 1029.8 0.6
22/08:00am 11.6 10.1 8.3 80 1.6 SW 6 7 3 4 1029.5 1029.5 0.6
22/07:30am 11.4 10.4 8.8 84 1.3 ESE 4 7 2 4 1029.1 1029.1 0.6
22/07:00am 11.6 10.6 8.8 83 1.4 SSE 4 6 2 3 1028.6 1028.6 0.6
22/06:30am 11.4 10.7 8.6 83 1.4 SSW 2 4 1 2 1028.4 1028.4 0.6
22/06:00am 11.3 10.6 8.7 84 1.3 SSE 2 4 1 2 1027.9 1027.9 0.6
22/05:30am 11.5 10.6 9.1 85 1.2 SSE 4 7 2 4 1027.7 1027.7 0.6
22/05:00am 11.8 9.9 9.2 84 1.3 ESE 9 11 5 6 1027.5 1027.5 0.6
22/04:30am 11.8 9.2 9.4 85 1.2 E 13 17 7 9 1027.4 1027.4 0.6
22/04:00am 11.8 8.5 9.5 86 1.2 ESE 17 20 9 11 1027.3 1027.3 0.6
22/03:30am 11.8 8.9 9.5 86 1.2 ESE 15 19 8 10 1027.1 1027.1 0.6
22/03:00am 11.8 8.5 9.7 87 1.1 ESE 17 20 9 11 1027.2 1027.2 0.6
22/02:30am 11.7 8.1 9.8 88 1.0 ESE 19 22 10 12 1027.1 1027.1 0.6
22/02:00am 11.8 7.7 10.0 89 0.9 ESE 22 28 12 15 1027.0 1027.0 0.6
22/01:30am 12.1 7.6 10.2 88 1.0 ESE 24 30 13 16 1026.9 1026.9 0.6
22/01:00am 12.4 7.7 10.5 88 1.0 ESE 26 32 14 17 1026.9 1026.9 0.6
22/12:30am 12.3 7.5 10.4 88 1.0 ESE 26 32 14 17 1026.7 1026.7 0.6
22/12:00am 12.2 8.5 10.3 88 1.0 ESE 20 28 11 15 1026.8 1026.8 0.6
 
Date/Time
EST
Tmp

°C
App
Tmp
°C
Dew
Point
°C
Rel
Hum
%
Delta-T

°C
Wind Press
QNH
hPa
Press
MSL
hPa
Rain
since
9 am
mm
Dir
 
Spd
km/h
Gust
km/h
Spd
kts
Gust
kts
21/11:30pm 12.3 7.6 10.7 90 0.8 ESE 26 30 14 16 1026.6 1026.6 0.6
21/11:00pm 12.1 8.5 10.5 90 0.8 ESE 20 26 11 14 1026.5 1026.5 0.6
21/10:30pm 12.2 8.9 10.8 91 0.7 ESE 19 26 10 14 1026.5 1026.5 0.6
21/10:00pm 12.2 10.8 10.9 92 0.7 SE 9 13 5 7 1026.5 1026.5 0.6
21/09:30pm 12.0 11.2 11.1 94 0.5 SE 6 9 3 5 1026.5 1026.5 0.6
21/09:00pm 12.0 11.2 10.9 93 0.6 SE 6 9 3 5 1026.2 1026.2 0.6
21/08:30pm 11.9 11.1 11.0 94 0.5 SE 6 7 3 4 1025.9 1025.9 0.6
21/08:00pm 11.8 11.0 11.0 95 0.4 SSE 6 7 3 4 1025.8 1025.8 0.6
21/07:30pm 11.4 10.3 10.6 95 0.4 ESE 7 11 4 6 1025.6 1025.6 0.6
21/07:00pm 11.7 10.0 11.1 96 0.3 E 11 13 6 7 1025.2 1025.2 0.6
21/06:30pm 11.7 9.6 11.2 97 0.3 ENE 13 15 7 8 1024.8 1024.8 0.6
21/06:00pm 11.7 10.0 11.2 97 0.3 NE 11 15 6 8 1024.3 1024.3 0.6
21/05:30pm 11.6 8.3 11.0 96 0.3 NE 19 22 10 12 1023.8 1023.8 0.6
21/05:00pm 11.7 7.9 11.1 96 0.3 NE 22 26 12 14 1023.3 1023.3 0.6
21/04:30pm 12.9 11.6 12.4 97 0.3 NNW 11 20 6 11 1022.6 1022.6 0.6
21/04:00pm 12.2 11.4 11.7 97 0.3 WNW 7 13 4 7 1022.4 1022.4 0.6
21/03:30pm 12.1 11.2 11.5 96 0.3 W 7 13 4 7 1022.4 1022.4 0.6
21/03:00pm 12.1 10.8 11.3 95 0.4 WSW 9 19 5 10 1022.5 1022.5 0.4
21/02:30pm 12.1 11.4 11.3 95 0.4 WSW 6 9 3 5 1022.5 1022.5 0.4
21/02:00pm 11.8 10.7 10.5 92 0.7 WSW 7 11 4 6 1022.7 1022.7 0.4
21/01:30pm 11.9 10.2 9.8 87 1.1 SW 9 13 5 7 1023.0 1023.0 0.2
21/01:00pm 12.4 10.4 8.7 78 1.8 SW 9 13 5 7 1023.0 1023.0 0.0
21/12:30pm 13.0 10.5 8.3 73 2.3 SW 11 19 6 10 1023.2 1023.2 0.0
21/12:00pm 13.4 10.5 8.3 71 2.5 SW 13 22 7 12 1023.3 1023.3 0.0
21/11:30am 13.1 10.6 8.4 73 2.3 SW 11 17 6 9 1023.6 1023.6 0.0
21/11:00am 13.2 10.3 8.1 71 2.5 SSW 13 22 7 12 1023.7 1023.7 0.0
21/10:30am 12.9 9.9 7.8 71 2.5 SSW 13 20 7 11 1023.6 1023.6 0.0
21/10:00am 12.6 9.6 7.7 72 2.4 SSW 13 26 7 14 1023.4 1023.4 0.0
21/09:30am 12.4 9.4 7.7 73 2.3 SSW 13 24 7 13 1023.3 1023.3 0.0
21/09:00am 12.4 9.2 8.3 76 2.0 SSW 15 22 8 12 1023.0 1023.0 0.8
21/08:30am 12.0 9.0 7.5 74 2.2 S 13 26 7 14 1022.7 1022.7 0.8
21/08:00am 11.9 8.1 7.4 74 2.2 SSW 17 24 9 13 1022.4 1022.4 0.8
21/07:30am 11.7 7.9 7.6 76 2.0 S 17 26 9 14 1022.0 1022.0 0.8
21/07:00am 11.7 8.3 7.6 76 2.0 SSW 15 24 8 13 1021.7 1021.7 0.8
21/06:30am 11.7 9.1 7.6 76 2.0 SSW 11 22 6 12 1021.4 1021.4 0.8
21/06:00am 11.7 8.6 7.4 75 2.1 SSW 13 20 7 11 1021.1 1021.1 0.8
21/05:30am 11.6 8.1 7.3 75 2.1 SSW 15 26 8 14 1020.9 1020.9 0.8
21/05:00am 11.6 8.2 7.7 77 1.9 S 15 24 8 13 1020.5 1020.5 0.8
21/04:30am 11.7 8.0 8.0 78 1.8 S 17 30 9 16 1020.2 1020.2 0.8
21/04:00am 11.7 8.0 8.0 78 1.8 S 17 28 9 15 1020.0 1020.0 0.8
21/03:30am 11.4 7.8 8.3 81 1.5 SSW 17 30 9 16 1019.8 1019.8 0.8
21/03:00am 11.5 7.8 8.0 79 1.7 SSW 17 30 9 16 1019.8 1019.8 0.8
21/02:30am 10.8 6.3 8.4 85 1.2 SSW 22 41 12 22 1019.6 1019.6 0.8
21/02:00am 11.8 8.2 8.5 80 1.6 SSW 17 30 9 16 1019.4 1019.4 0.6
21/01:30am 11.7 7.8 8.6 81 1.5 SSW 19 32 10 17 1019.3 1019.3 0.6
21/01:00am 11.8 7.3 8.6 81 1.6 SSW 22 41 12 22 1019.0 1019.0 0.6
21/12:30am 11.6 6.8 9.0 84 1.3 SSW 24 37 13 20 1018.8 1018.8 0.6
21/12:00am 11.3 6.6 9.2 87 1.0 SSW 24 39 13 21 1018.4 1018.4 0.6
 
Date/Time
EST
Tmp

°C
App
Tmp
°C
Dew
Point
°C
Rel
Hum
%
Delta-T

°C
Wind Press
QNH
hPa
Press
MSL
hPa
Rain
since
9 am
mm
Dir
 
Spd
km/h
Gust
km/h
Spd
kts
Gust
kts
20/11:30pm 11.2 7.6 10.4 95 0.4 SSW 20 37 11 20 1018.3 1018.3 0.6
20/11:00pm 11.8 7.1 10.5 92 0.7 SW 26 39 14 21 1017.8 1017.8 0.2
20/10:30pm 12.2 8.6 10.6 90 0.8 SSW 20 35 11 19 1017.6 1017.6 0.2
20/10:00pm 12.4 8.6 11.0 91 0.7 SW 22 32 12 17 1017.1 1017.1 0.2
20/09:30pm 12.9 9.7 11.8 93 0.6 SSW 20 35 11 19 1016.6 1016.6 0.2
20/09:00pm 13.2 10.1 12.3 94 0.5 SSW 20 32 11 17 1016.0 1016.0 0.2
20/08:30pm 13.4 10.4 12.5 94 0.5 SSW 20 32 11 17 1015.3 1015.3 0.2
20/08:00pm 13.9 12.9 13.3 96 0.3 SW 11 28 6 15 1014.7 1014.7 0.2
20/07:30pm 14.0 13.8 13.1 94 0.5 SW 6 11 3 6 1014.3 1014.3 0.0
20/07:00pm 13.9 13.7 13.0 94 0.5 WNW 6 13 3 7 1013.6 1013.6 0.0
20/06:30pm 13.8 12.2 12.9 94 0.5 NNW 13 19 7 10 1013.1 1013.1 0.0
20/06:00pm 13.8 12.2 12.9 94 0.5 NNW 13 19 7 10 1012.6 1012.6 0.0
20/05:30pm 14.1 11.7 12.8 92 0.7 NNW 17 26 9 14 1012.1 1012.1 0.0
20/05:00pm 14.4 11.9 11.2 81 1.7 N 15 20 8 11 1011.8 1011.8 0.0
20/04:30pm 14.9 12.0 11.1 78 2.0 N 17 24 9 13 1011.6 1011.6 0.0
20/04:00pm 15.1 11.4 11.5 79 1.9 N 22 26 12 14 1011.3 1011.3 0.0
20/03:30pm 15.6 13.6 11.6 77 2.2 NNW 13 17 7 9 1011.1 1011.1 0.0
20/03:00pm 15.9 14.1 10.9 72 2.7 NW 11 19 6 10 1010.9 1010.9 0.0
20/02:30pm 15.4 13.4 11.6 78 2.0 NNW 13 22 7 12 1010.7 1010.7 0.0
20/02:00pm 15.6 12.6 10.8 73 2.6 NNW 17 30 9 16 1010.4 1010.4 0.0
20/01:30pm 16.1 12.0 10.0 67 3.2 NNW 22 33 12 18 1010.2 1010.2 0.0
20/01:00pm 15.7 11.1 9.8 68 3.1 NNW 24 37 13 20 1010.2 1010.2 0.0
20/12:30pm 16.0 12.9 10.3 69 3.0 NW 17 28 9 15 1010.5 1010.5 0.0
20/12:00pm 15.7 12.6 10.2 70 2.9 NW 17 30 9 16 1010.6 1010.6 0.0
20/11:30am 16.2 13.9 10.3 68 3.1 NW 13 24 7 13 1010.8 1010.8 0.0
20/11:00am 15.5 13.5 10.1 70 2.8 NW 11 26 6 14 1010.8 1010.8 0.0
20/10:30am 16.1 14.7 10.8 71 2.8 NW 9 24 5 13 1010.5 1010.5 0.0
20/10:00am 16.2 14.4 12.0 76 2.3 NNW 13 22 7 12 1010.2 1010.2 0.0
20/09:30am 15.5 13.8 12.6 83 1.6 NNW 13 19 7 10 1010.0 1010.0 0.0
20/09:00am 14.6 11.7 12.3 86 1.3 NNW 19 24 10 13 1009.5 1009.5 6.2
20/08:30am 14.3 10.0 12.2 87 1.1 NNW 26 32 14 17 1009.2 1009.2 6.2
20/08:00am 14.3 10.4 12.2 87 1.1 NNW 24 32 13 17 1008.9 1008.9 6.2
20/07:30am 14.4 10.2 12.3 87 1.1 NNW 26 32 14 17 1008.5 1008.5 6.2
20/07:00am 14.3 9.7 12.2 87 1.1 NNW 28 33 15 18 1008.1 1008.1 6.2
20/06:30am 14.2 10.7 12.1 87 1.1 N 22 28 12 15 1007.9 1007.9 6.2
20/06:00am 14.2 11.1 12.2 88 1.1 N 20 30 11 16 1007.6 1007.6 6.2
20/05:30am 14.4 10.4 11.9 85 1.3 N 24 35 13 19 1007.4 1007.4 6.2
20/05:00am 14.6 9.9 11.9 84 1.5 N 28 37 15 20 1007.0 1007.0 6.2
20/04:30am 14.7 9.6 11.8 83 1.6 N 30 37 16 20 1007.0 1007.0 6.2
20/04:00am 13.9 10.3 11.8 87 1.1 N 22 30 12 16 1006.9 1006.9 6.2
20/03:30am 12.5 11.3 11.7 95 0.4 NE 9 11 5 6 1007.4 1007.4 6.2
20/03:00am 13.1 12.1 12.3 95 0.4 NE 9 11 5 6 1007.5 1007.5 6.2
20/02:30am 13.3 12.7 12.2 93 0.6 N 7 9 4 5 1007.7 1007.7 6.2
20/02:00am 13.5 10.5 12.1 91 0.8 NNW 19 24 10 13 1008.1 1008.1 6.0
20/01:30am 13.7 11.0 11.8 88 1.0 NNW 17 20 9 11 1008.3 1008.3 5.8
20/01:00am 13.8 11.1 11.8 88 1.1 NNW 17 22 9 12 1008.6 1008.6 5.6
20/12:30am 13.2 12.2 11.1 87 1.1 N 7 13 4 7 1008.5 1008.5 5.6
20/12:00am 12.8 12.0 11.0 89 0.9 NE 6 7 3 4 1008.9 1008.9 5.6
 
Date/Time
EST
Tmp

°C
App
Tmp
°C
Dew
Point
°C
Rel
Hum
%
Delta-T

°C
Wind Press
QNH
hPa
Press
MSL
hPa
Rain
since
9 am
mm
Dir
 
Spd
km/h
Gust
km/h
Spd
kts
Gust
kts
19/11:30pm 13.7 12.7 11.0 84 1.4 N 7 13 4 7 1009.2 1009.2 5.6
19/11:00pm 13.8 10.8 10.6 81 1.7 N 17 22 9 12 1009.5 1009.5 5.6

Latest Capital City Observations: Canberra | Sydney | Melbourne | Brisbane | Adelaide | Perth | Hobart | Darwin

Other Formats:

Comma delimited format used in spreadsheet applications
http://www.bom.gov.au/fwo/IDV60901/IDV60901.94892.axf

JavaScript Object Notation format (JSON) in row-major order
http://www.bom.gov.au/fwo/IDV60901/IDV60901.94892.json